Time;durP1;ratioP1;P1;durP2;ratioP2;P2;SDS_P1;SDS_P2;PMS_P1;PMS_P2;Temp;Humidity;BMP_temperature;BMP_pressure;BME280_temperature;BME280_humidity;BME280_pressure;Samples;Min_cycle;Max_cycle;Signal;HPM_P1;HPM_P2
2023/03/06 00:00:19;;;;;;;2.40;2.20;;;4.30;99.90;;;;;;4999558;28;20145;-43
2023/03/06 00:02:47;;;;;;;2.75;2.28;;;4.20;99.90;;;;;;4999260;28;20050;-44
2023/03/06 00:05:20;;;;;;;2.67;2.30;;;4.20;99.90;;;;;;4999397;28;20105;-42
2023/03/06 00:07:46;;;;;;;5.10;2.40;;;4.10;99.90;;;;;;4999898;28;20034;-43
2023/03/06 00:10:14;;;;;;;2.85;2.10;;;4.10;99.90;;;;;;4999634;28;20032;-42
2023/03/06 00:12:40;;;;;;;4.07;2.30;;;4.10;99.90;;;;;;5002880;28;20069;-42
2023/03/06 00:15:06;;;;;;;2.42;2.15;;;4.00;99.90;;;;;;5003508;28;20057;-42
2023/03/06 00:17:32;;;;;;;2.65;2.40;;;4.00;99.90;;;;;;5003487;28;20018;-42
2023/03/06 00:20:03;;;;;;;3.92;2.88;;;3.90;99.90;;;;;;5004280;28;20036;-40
2023/03/06 00:22:29;;;;;;;2.10;1.98;;;3.90;99.90;;;;;;5003338;28;20501;-43
2023/03/06 00:24:54;;;;;;;4.90;2.33;;;3.80;99.90;;;;;;5003676;28;20018;-42
2023/03/06 00:27:25;;;;;;;2.47;2.25;;;3.80;99.90;;;;;;5003135;28;20033;-43
2023/03/06 00:29:54;;;;;;;4.00;2.50;;;3.80;99.90;;;;;;5003543;28;20030;-42
2023/03/06 00:32:20;;;;;;;2.50;2.30;;;3.80;99.90;;;;;;5002466;28;20022;-42
2023/03/06 00:34:48;;;;;;;3.92;2.53;;;3.80;99.90;;;;;;5003967;28;20053;-43
2023/03/06 00:37:14;;;;;;;3.65;2.33;;;3.80;99.90;;;;;;5002789;28;20065;-43
2023/03/06 00:39:40;;;;;;;3.22;2.67;;;3.80;99.90;;;;;;5004196;28;20764;-43
2023/03/06 00:42:05;;;;;;;2.97;2.10;;;3.70;99.90;;;;;;5003313;28;20072;-43
2023/03/06 00:44:31;;;;;;;4.53;2.55;;;3.60;99.90;;;;;;5001970;28;20571;-43
2023/03/06 00:47:00;;;;;;;3.33;2.67;;;3.60;99.90;;;;;;5002785;28;20022;-46
2023/03/06 00:49:28;;;;;;;4.10;2.65;;;3.60;99.90;;;;;;5002403;28;20036;-43
2023/03/06 00:51:54;;;;;;;4.00;2.50;;;3.60;99.90;;;;;;5002573;28;20029;-42
2023/03/06 00:54:19;;;;;;;3.50;2.67;;;3.50;99.90;;;;;;5002577;28;20831;-43
2023/03/06 00:56:45;;;;;;;3.13;2.53;;;3.50;99.90;;;;;;4983710;28;20117;-44
2023/03/06 00:59:10;;;;;;;2.45;2.22;;;3.50;99.90;;;;;;4996809;28;20030;-42
2023/03/06 01:01:36;;;;;;;4.03;3.03;;;3.40;99.90;;;;;;5003265;28;20030;-42
2023/03/06 01:04:02;;;;;;;3.55;2.72;;;3.40;99.90;;;;;;5003293;28;20118;-42
2023/03/06 01:06:27;;;;;;;3.13;2.55;;;3.40;99.90;;;;;;5002782;28;20025;-43
2023/03/06 01:08:53;;;;;;;2.85;2.55;;;3.50;99.90;;;;;;5003266;28;20408;-42
2023/03/06 01:11:18;;;;;;;2.80;2.28;;;3.50;99.90;;;;;;5001848;28;20034;-42
2023/03/06 01:13:44;;;;;;;2.95;2.65;;;3.40;99.90;;;;;;5002887;28;20113;-42
2023/03/06 01:16:12;;;;;;;3.40;2.50;;;3.50;99.90;;;;;;5001591;28;20626;-43
2023/03/06 01:18:38;;;;;;;3.50;2.75;;;3.50;99.90;;;;;;5003137;28;20053;-42
2023/03/06 01:21:05;;;;;;;3.15;2.85;;;3.50;99.90;;;;;;5002262;28;20104;-42
2023/03/06 01:23:30;;;;;;;5.15;2.88;;;3.50;99.90;;;;;;5000931;28;20673;-42
2023/03/06 01:25:56;;;;;;;3.28;2.97;;;3.50;99.90;;;;;;5002162;28;20495;-43
2023/03/06 01:28:22;;;;;;;3.97;2.38;;;3.50;99.90;;;;;;5001492;28;20030;-43
2023/03/06 01:30:49;;;;;;;3.65;3.00;;;3.40;99.90;;;;;;5002304;28;20026;-43
2023/03/06 01:33:15;;;;;;;3.28;2.90;;;3.40;99.90;;;;;;5001107;28;20756;-43
2023/03/06 01:35:41;;;;;;;6.22;3.90;;;3.40;99.90;;;;;;5002422;28;20065;-43
2023/03/06 01:38:07;;;;;;;4.75;3.85;;;3.30;99.90;;;;;;5002062;28;20108;-43
2023/03/06 01:40:34;;;;;;;6.90;4.75;;;3.30;99.90;;;;;;5001648;28;20014;-43
2023/03/06 01:43:28;;;;;;;5.68;4.30;;;3.20;99.90;;;;;;5002140;28;20038;-43
2023/03/06 01:46:28;;;;;;;4.88;3.60;;;3.20;99.90;;;;;;5002330;28;20338;-44
2023/03/06 01:49:21;;;;;;;4.22;3.33;;;3.20;99.90;;;;;;4982733;28;20041;-43
2023/03/06 01:51:56;;;;;;;4.20;3.40;;;3.30;99.90;;;;;;5001825;28;20036;-43
2023/03/06 01:54:26;;;;;;;4.30;3.15;;;3.30;99.90;;;;;;5000179;28;20045;-43
2023/03/06 01:56:58;;;;;;;3.55;2.90;;;3.30;99.90;;;;;;4999506;28;20042;-42
2023/03/06 01:59:25;;;;;;;4.00;3.42;;;3.30;99.90;;;;;;5001187;28;20271;-43
2023/03/06 02:01:52;;;;;;;3.58;3.08;;;3.30;99.90;;;;;;5000869;28;20030;-42
2023/03/06 02:04:18;;;;;;;5.93;3.70;;;3.30;99.90;;;;;;5000814;28;20109;-42
2023/03/06 02:06:44;;;;;;;5.20;3.85;;;3.30;99.90;;;;;;5001166;28;20092;-44
2023/03/06 02:09:11;;;;;;;5.32;4.40;;;3.30;99.90;;;;;;5000552;28;20034;-42
2023/03/06 02:11:37;;;;;;;5.72;4.25;;;3.20;99.90;;;;;;5001855;28;20634;-43
2023/03/06 02:14:03;;;;;;;7.78;5.53;;;3.20;99.90;;;;;;5001148;28;20101;-43
2023/03/06 02:16:31;;;;;;;6.53;5.32;;;3.20;99.90;;;;;;5000543;28;20037;-43
2023/03/06 02:19:03;;;;;;;8.40;6.40;;;3.20;99.90;;;;;;5001973;28;20057;-43
2023/03/06 02:21:35;;;;;;;11.57;8.15;;;3.20;99.90;;;;;;5000745;28;20817;-41
2023/03/06 02:24:26;;;;;;;11.20;8.30;;;3.20;99.90;;;;;;5001554;28;20033;-42
2023/03/06 02:26:53;;;;;;;10.32;8.32;;;3.10;99.90;;;;;;5001705;28;20265;-42
2023/03/06 02:29:25;;;;;;;11.63;9.02;;;3.10;99.90;;;;;;5000587;28;20044;-43
2023/03/06 02:31:51;;;;;;;11.13;8.82;;;3.10;99.90;;;;;;5001402;28;20022;-42
2023/03/06 02:34:19;;;;;;;13.00;9.50;;;3.10;99.90;;;;;;5000238;28;20049;-42
2023/03/06 02:36:48;;;;;;;10.95;8.05;;;3.10;99.90;;;;;;4999855;28;20033;-42
2023/03/06 02:39:16;;;;;;;8.98;7.60;;;3.10;99.90;;;;;;5001150;28;20056;-41
2023/03/06 02:41:42;;;;;;;9.90;7.82;;;3.00;99.90;;;;;;5000977;28;20120;-42
2023/03/06 02:44:07;;;;;;;9.93;7.70;;;3.00;99.90;;;;;;5000143;28;20469;-42
2023/03/06 02:46:33;;;;;;;9.93;7.85;;;3.00;99.90;;;;;;5000839;28;20631;-43
2023/03/06 02:48:59;;;;;;;9.68;7.78;;;3.00;99.90;;;;;;5000796;28;21033;-42
2023/03/06 02:51:27;;;;;;;12.23;7.82;;;3.00;99.90;;;;;;5000532;28;20034;-42
2023/03/06 02:53:53;;;;;;;10.95;8.73;;;3.00;99.90;;;;;;5001067;28;20041;-43
2023/03/06 02:56:19;;;;;;;10.57;8.85;;;3.00;99.90;;;;;;5000074;28;20049;-42
2023/03/06 02:58:44;;;;;;;11.85;8.60;;;2.90;99.90;;;;;;5000645;28;20026;-42
2023/03/06 03:01:10;;;;;;;9.70;8.35;;;2.90;99.90;;;;;;5000520;28;20072;-43
2023/03/06 03:03:36;;;;;;;11.45;9.00;;;2.90;99.90;;;;;;4999338;28;20026;-44
2023/03/06 03:06:05;;;;;;;11.85;9.80;;;2.90;99.90;;;;;;4999376;28;20045;-43
2023/03/06 03:08:32;;;;;;;13.68;9.90;;;2.90;99.90;;;;;;5000183;28;20125;-42
2023/03/06 03:10:57;;;;;;;14.23;10.50;;;2.90;99.90;;;;;;4999560;28;20034;-42
2023/03/06 03:13:23;;;;;;;12.93;9.50;;;2.90;99.90;;;;;;4999317;28;20242;-43
2023/03/06 03:16:00;;;;;;;13.35;10.07;;;2.90;99.90;;;;;;5000698;28;20141;-43
2023/03/06 03:18:26;;;;;;;14.98;9.82;;;2.90;99.90;;;;;;4999311;28;20037;-41
2023/03/06 03:20:52;;;;;;;11.75;9.30;;;2.90;99.90;;;;;;5000637;28;20417;-42
2023/03/06 03:23:18;;;;;;;11.98;9.48;;;3.00;99.90;;;;;;4999626;28;20672;-43
2023/03/06 03:25:43;;;;;;;12.77;9.95;;;2.90;99.90;;;;;;4998950;28;20025;-43
2023/03/06 03:28:09;;;;;;;12.20;9.65;;;2.90;99.90;;;;;;4999326;28;20028;-43
2023/03/06 03:30:39;;;;;;;13.57;9.52;;;2.90;99.90;;;;;;4999784;28;20480;-42
2023/03/06 03:33:08;;;;;;;11.63;9.07;;;2.90;99.90;;;;;;4998796;28;20033;-42
2023/03/06 03:35:33;;;;;;;10.85;9.05;;;2.90;99.90;;;;;;4999995;28;20100;-43
2023/03/06 03:37:59;;;;;;;10.35;8.55;;;2.90;99.90;;;;;;4999925;28;20034;-43
2023/03/06 03:40:25;;;;;;;10.32;8.93;;;2.90;99.90;;;;;;4999322;28;20030;-42
2023/03/06 03:42:50;;;;;;;10.57;9.10;;;3.00;99.90;;;;;;5000645;28;20037;-43
2023/03/06 03:45:16;;;;;;;12.57;8.82;;;3.00;99.90;;;;;;4998953;28;20355;-42
2023/03/06 03:47:42;;;;;;;12.07;9.30;;;3.00;99.90;;;;;;4998922;28;20434;-42
2023/03/06 03:50:12;;;;;;;11.38;9.27;;;3.00;99.90;;;;;;4999718;28;20105;-43
2023/03/06 03:52:37;;;;;;;12.68;9.07;;;3.00;99.90;;;;;;4980652;28;20761;-43
2023/03/06 03:55:04;;;;;;;12.43;9.13;;;3.10;99.90;;;;;;4993494;28;20044;-42
2023/03/06 03:57:29;;;;;;;13.98;10.50;;;3.10;99.90;;;;;;4999839;28;20042;-44
2023/03/06 03:59:55;;;;;;;12.32;9.63;;;3.10;99.90;;;;;;4999801;28;20072;-43
2023/03/06 04:02:20;;;;;;;11.63;9.40;;;3.10;99.90;;;;;;4999218;28;20794;-43
2023/03/06 04:04:46;;;;;;;12.38;8.85;;;3.10;99.90;;;;;;4999184;28;20030;-42
2023/03/06 04:07:15;;;;;;;12.10;9.13;;;3.20;99.90;;;;;;4999302;28;20041;-43
2023/03/06 04:09:40;;;;;;;11.93;9.40;;;3.20;99.90;;;;;;4999656;28;20037;-43
2023/03/06 04:12:06;;;;;;;12.25;9.82;;;3.20;99.90;;;;;;4998329;28;20026;-42
2023/03/06 04:14:32;;;;;;;11.32;8.95;;;3.20;99.90;;;;;;4998872;28;20030;-42
2023/03/06 04:16:58;;;;;;;11.27;9.27;;;3.20;99.90;;;;;;4998658;28;20022;-42
2023/03/06 04:19:29;;;;;;;11.50;9.40;;;3.20;99.90;;;;;;4999025;28;20038;-42
2023/03/06 04:21:55;;;;;;;11.98;9.23;;;3.20;99.90;;;;;;4996204;28;20038;-44
2023/03/06 04:24:20;;;;;;;11.32;8.98;;;3.20;99.90;;;;;;4999314;28;20104;-42
2023/03/06 04:26:46;;;;;;;10.73;8.85;;;3.30;99.90;;;;;;4998969;28;20760;-43
2023/03/06 04:29:11;;;;;;;11.98;9.05;;;3.30;99.90;;;;;;4999043;28;20032;-42
2023/03/06 04:31:37;;;;;;;11.68;8.68;;;3.30;99.90;;;;;;4999241;28;20455;-41
2023/03/06 04:34:05;;;;;;;13.27;9.38;;;3.30;99.90;;;;;;4998718;28;20034;-43
2023/03/06 04:36:33;;;;;;;12.93;9.88;;;3.30;99.90;;;;;;4998275;28;20593;-43
2023/03/06 04:38:59;;;;;;;13.85;9.57;;;3.30;99.90;;;;;;4999814;28;20050;-43
2023/03/06 04:41:25;;;;;;;14.18;10.73;;;3.30;99.90;;;;;;4999955;28;20362;-42
2023/03/06 04:43:51;;;;;;;13.18;10.00;;;3.30;99.90;;;;;;4999409;28;20026;-42
2023/03/06 04:46:16;;;;;;;11.52;8.77;;;3.30;99.90;;;;;;4999440;28;20101;-42
2023/03/06 04:48:42;;;;;;;12.57;9.02;;;3.30;99.90;;;;;;5000167;28;20026;-42
2023/03/06 04:51:11;;;;;;;13.30;10.30;;;3.40;99.90;;;;;;4998035;28;20030;-42
2023/03/06 04:53:37;;;;;;;12.65;9.60;;;3.40;99.90;;;;;;4999628;28;20847;-42
2023/03/06 04:56:03;;;;;;;12.05;9.52;;;3.40;99.90;;;;;;4998416;28;20190;-43
2023/03/06 04:58:28;;;;;;;13.60;10.13;;;3.40;99.90;;;;;;5001833;28;20030;-42
2023/03/06 05:00:54;;;;;;;15.02;11.43;;;3.40;99.90;;;;;;5003277;28;20065;-42
2023/03/06 05:03:20;;;;;;;14.98;11.98;;;3.40;99.90;;;;;;5002068;28;20113;-42
2023/03/06 05:05:45;;;;;;;14.05;10.60;;;3.40;99.90;;;;;;5003200;28;20042;-42
2023/03/06 05:08:14;;;;;;;13.32;9.77;;;3.40;99.90;;;;;;5002439;28;20030;-42
2023/03/06 05:10:42;;;;;;;12.93;10.18;;;3.40;99.90;;;;;;5002361;28;20053;-42
2023/03/06 05:13:09;;;;;;;12.95;9.60;;;3.40;99.90;;;;;;5002156;28;20042;-42
2023/03/06 05:15:34;;;;;;;13.25;10.55;;;3.50;99.90;;;;;;5003149;28;20032;-42
2023/03/06 05:18:00;;;;;;;14.35;10.13;;;3.50;99.90;;;;;;5002109;28;20068;-42
2023/03/06 05:20:27;;;;;;;13.52;10.35;;;3.50;99.90;;;;;;5002397;28;20184;-43
2023/03/06 05:22:56;;;;;;;14.48;10.77;;;3.50;99.90;;;;;;5002263;28;20118;-42
2023/03/06 05:25:21;;;;;;;13.10;9.15;;;3.50;99.90;;;;;;5001831;28;20064;-42
2023/03/06 05:27:47;;;;;;;16.33;10.50;;;3.50;99.90;;;;;;5001364;28;20101;-43
2023/03/06 05:30:14;;;;;;;13.85;9.98;;;3.50;99.90;;;;;;5001328;28;20033;-42
2023/03/06 05:32:39;;;;;;;13.10;9.70;;;3.50;99.90;;;;;;5001391;28;20025;-42
2023/03/06 05:35:05;;;;;;;11.88;9.10;;;3.60;99.90;;;;;;5001625;28;20029;-43
2023/03/06 05:37:40;;;;;;;13.27;9.65;;;3.60;99.90;;;;;;5002606;28;20030;-43
2023/03/06 05:40:08;;;;;;;13.05;8.82;;;3.60;99.90;;;;;;5001707;28;20026;-43
2023/03/06 05:42:34;;;;;;;11.40;9.18;;;3.60;99.90;;;;;;5002270;28;20018;-42
2023/03/06 05:45:01;;;;;;;11.30;8.75;;;3.60;99.90;;;;;;5001680;28;20045;-43
2023/03/06 05:47:26;;;;;;;12.20;8.73;;;3.60;99.90;;;;;;5001653;28;20049;-42
2023/03/06 05:49:57;;;;;;;12.18;9.13;;;3.60;99.90;;;;;;5001705;28;20474;-42
2023/03/06 05:52:23;;;;;;;11.25;7.63;;;3.60;99.90;;;;;;5001821;28;20049;-43
2023/03/06 05:54:50;;;;;;;14.77;8.60;;;3.70;99.90;;;;;;5002362;28;20037;-43
2023/03/06 05:57:30;;;;;;;10.73;8.43;;;3.60;99.90;;;;;;5001916;28;20034;-42
2023/03/06 05:59:55;;;;;;;11.45;9.27;;;3.60;99.90;;;;;;5001250;28;20033;-43
2023/03/06 06:02:21;;;;;;;11.65;9.80;;;3.70;99.90;;;;;;5001461;28;20032;-43
2023/03/06 06:04:47;;;;;;;12.85;9.18;;;3.60;99.90;;;;;;5001540;28;20061;-42
2023/03/06 06:07:14;;;;;;;14.00;9.68;;;3.60;99.90;;;;;;5000779;28;20033;-42
2023/03/06 06:09:40;;;;;;;11.77;9.45;;;3.60;99.90;;;;;;5001061;28;20030;-42
2023/03/06 06:12:08;;;;;;;11.70;8.93;;;3.60;99.90;;;;;;5001517;28;20037;-43
2023/03/06 06:14:34;;;;;;;12.65;9.10;;;3.70;99.90;;;;;;5001201;28;20046;-43
2023/03/06 06:16:59;;;;;;;13.30;8.40;;;3.70;99.90;;;;;;5002200;28;20045;-42
2023/03/06 06:19:28;;;;;;;11.90;8.50;;;3.70;99.90;;;;;;5001156;28;20034;-43
2023/03/06 06:21:53;;;;;;;12.30;8.95;;;3.60;99.90;;;;;;5001220;28;20066;-42
2023/03/06 06:24:22;;;;;;;10.77;8.13;;;3.60;99.90;;;;;;5000714;28;20034;-42
2023/03/06 06:26:53;;;;;;;11.48;8.00;;;3.60;99.90;;;;;;5001422;28;20378;-42
2023/03/06 06:29:18;;;;;;;11.77;8.32;;;3.60;99.90;;;;;;4999573;28;20878;-43
2023/03/06 06:31:44;;;;;;;10.82;7.95;;;3.60;99.90;;;;;;5000785;28;20030;-44
2023/03/06 06:34:10;;;;;;;9.85;7.40;;;3.60;99.90;;;;;;5000374;28;20030;-44
2023/03/06 06:36:37;;;;;;;12.13;7.72;;;3.60;99.90;;;;;;5000016;28;20080;-46
2023/03/06 06:39:03;;;;;;;9.07;6.95;;;3.60;99.90;;;;;;5000290;28;20043;-41
2023/03/06 06:41:30;;;;;;;11.10;7.85;;;3.60;99.90;;;;;;4999164;28;20029;-42
2023/03/06 06:43:56;;;;;;;9.07;7.50;;;3.60;99.90;;;;;;4989350;28;20029;-42
2023/03/06 06:46:22;;;;;;;9.15;7.72;;;3.60;99.90;;;;;;4996243;28;20033;-43
2023/03/06 06:48:49;;;;;;;10.10;7.43;;;3.60;99.90;;;;;;4995650;28;20028;-42
2023/03/06 06:51:15;;;;;;;9.73;7.72;;;3.60;99.90;;;;;;4996277;28;20036;-43
2023/03/06 06:53:41;;;;;;;11.77;7.30;;;3.70;99.90;;;;;;4995927;28;20588;-43
2023/03/06 06:56:07;;;;;;;8.70;6.75;;;3.70;99.90;;;;;;4985069;28;20046;-43
2023/03/06 06:58:32;;;;;;;9.77;7.43;;;3.80;99.90;;;;;;4971691;28;20030;-43
2023/03/06 07:01:08;;;;;;;9.45;7.75;;;3.80;99.90;;;;;;4975881;28;20026;-44
2023/03/06 07:03:33;;;;;;;8.93;7.80;;;3.80;99.90;;;;;;4971787;28;20026;-43
2023/03/06 07:05:59;;;;;;;8.45;6.97;;;3.80;99.90;;;;;;4980667;28;20073;-43
2023/03/06 07:08:25;;;;;;;7.95;6.85;;;3.80;99.90;;;;;;4977351;28;20811;-43
2023/03/06 07:10:54;;;;;;;7.50;5.90;;;3.90;99.90;;;;;;4975817;28;20044;-43
2023/03/06 07:13:20;;;;;;;8.10;6.20;;;3.90;99.90;;;;;;4980337;28;20165;-43
2023/03/06 07:15:46;;;;;;;7.13;6.25;;;4.00;99.90;;;;;;4977213;28;20413;-44
2023/03/06 07:18:11;;;;;;;6.70;5.97;;;4.00;99.90;;;;;;4977884;28;20040;-43
2023/03/06 07:20:37;;;;;;;7.30;5.65;;;4.00;99.90;;;;;;4977380;28;20030;-43
2023/03/06 07:23:03;;;;;;;9.38;5.90;;;4.00;99.90;;;;;;4979689;28;20021;-43
2023/03/06 07:25:28;;;;;;;6.05;5.30;;;4.10;99.90;;;;;;4976996;28;20030;-43
2023/03/06 07:27:54;;;;;;;6.20;5.60;;;4.10;99.90;;;;;;4981323;28;20766;-43
2023/03/06 07:30:21;;;;;;;7.05;5.70;;;4.20;99.90;;;;;;4979057;28;20027;-43
2023/03/06 07:32:47;;;;;;;8.60;6.28;;;4.20;99.90;;;;;;4978510;28;20109;-43
2023/03/06 07:35:18;;;;;;;7.68;5.40;;;4.20;99.90;;;;;;4977238;28;20031;-43
2023/03/06 07:37:43;;;;;;;7.15;6.20;;;4.20;99.90;;;;;;4980905;28;20045;-43
2023/03/06 07:40:11;;;;;;;6.40;5.60;;;4.20;99.90;;;;;;4977089;28;20030;-42
2023/03/06 07:42:37;;;;;;;6.15;5.55;;;4.30;99.90;;;;;;4980021;28;20121;-43
2023/03/06 07:45:11;;;;;;;7.68;5.38;;;4.30;99.90;;;;;;4966557;28;20034;-43
2023/03/06 07:47:36;;;;;;;5.68;5.03;;;4.30;99.90;;;;;;4975020;28;20034;-41
2023/03/06 07:50:04;;;;;;;6.15;4.80;;;4.30;99.90;;;;;;4977284;28;20446;-41
2023/03/06 07:52:29;;;;;;;5.78;4.57;;;4.40;99.90;;;;;;4982354;28;20746;-42
2023/03/06 07:54:55;;;;;;;5.07;4.50;;;4.40;99.90;;;;;;4974161;28;20034;-43
2023/03/06 07:57:20;;;;;;;6.25;5.18;;;4.50;99.90;;;;;;5009930;28;20461;-42
2023/03/06 07:59:46;;;;;;;5.15;4.43;;;4.50;99.90;;;;;;5000857;28;20504;-42
2023/03/06 08:02:18;;;;;;;4.38;3.97;;;4.60;99.90;;;;;;5003279;28;20026;-42
2023/03/06 08:04:43;;;;;;;4.40;4.00;;;4.70;99.90;;;;;;4996864;28;20149;-42
2023/03/06 08:07:09;;;;;;;5.03;3.63;;;4.70;99.90;;;;;;5003865;28;20043;-42
2023/03/06 08:09:35;;;;;;;7.38;3.80;;;4.80;99.90;;;;;;4996804;28;20133;-42
2023/03/06 08:12:01;;;;;;;4.38;3.45;;;4.90;99.90;;;;;;4997073;28;20567;-42
2023/03/06 08:14:27;;;;;;;3.65;3.30;;;4.90;99.90;;;;;;4996474;28;20067;-42
2023/03/06 08:16:58;;;;;;;6.10;3.47;;;4.90;99.90;;;;;;5008915;28;20029;-40
2023/03/06 08:19:23;;;;;;;4.50;3.00;;;4.90;99.90;;;;;;4996209;28;20034;-43
2023/03/06 08:21:49;;;;;;;2.90;2.60;;;5.00;99.90;;;;;;5015620;28;20584;-42
2023/03/06 08:24:15;;;;;;;2.45;2.10;;;5.00;99.90;;;;;;4999694;28;20512;-43
2023/03/06 08:26:41;;;;;;;3.45;2.60;;;5.00;99.90;;;;;;5000304;28;20044;-43
2023/03/06 08:29:09;;;;;;;2.35;1.90;;;5.00;99.90;;;;;;4995479;28;20092;-42
2023/03/06 08:31:41;;;;;;;2.30;2.10;;;5.00;99.90;;;;;;4996662;28;20034;-41
2023/03/06 08:34:10;;;;;;;2.33;1.90;;;5.10;99.90;;;;;;4999189;28;20034;-44
2023/03/06 08:36:36;;;;;;;1.92;1.70;;;5.30;99.90;;;;;;5000626;28;20032;-42
2023/03/06 08:39:01;;;;;;;2.13;1.67;;;5.30;99.90;;;;;;5000292;28;20022;-43
2023/03/06 08:41:27;;;;;;;2.63;1.77;;;5.40;99.90;;;;;;5003930;28;20021;-42
2023/03/06 08:43:53;;;;;;;1.80;1.70;;;5.40;99.90;;;;;;5000991;28;20110;-43
2023/03/06 08:46:20;;;;;;;1.95;1.60;;;5.40;99.90;;;;;;5008954;28;20026;-43
2023/03/06 08:48:47;;;;;;;1.80;1.70;;;5.40;99.90;;;;;;5003682;28;20034;-42
2023/03/06 08:51:13;;;;;;;2.03;1.70;;;5.50;99.90;;;;;;5009517;28;20083;-44
2023/03/06 08:53:39;;;;;;;2.80;1.42;;;5.50;99.90;;;;;;5016595;28;20128;-43
2023/03/06 08:56:05;;;;;;;1.92;1.40;;;5.60;99.90;;;;;;4999132;28;20052;-43
2023/03/06 08:58:30;;;;;;;1.40;1.30;;;5.70;99.90;;;;;;4999758;28;20026;-43
2023/03/06 09:01:05;;;;;;;1.75;1.38;;;5.70;99.90;;;;;;4998714;28;20431;-42
2023/03/06 09:03:31;;;;;;;1.27;1.02;;;5.70;99.90;;;;;;4997936;28;20149;-42
2023/03/06 09:05:58;;;;;;;2.25;1.60;;;5.70;99.90;;;;;;4998781;28;20120;-43
2023/03/06 09:08:24;;;;;;;0.80;0.80;;;5.60;99.90;;;;;;5000367;28;20032;-43
2023/03/06 09:10:49;;;;;;;1.10;1.00;;;5.60;99.90;;;;;;4999339;28;20755;-43
2023/03/06 09:13:15;;;;;;;2.15;1.08;;;5.50;99.90;;;;;;4999094;28;20099;-43
2023/03/06 09:15:40;;;;;;;1.13;1.02;;;5.50;99.90;;;;;;4998819;28;20112;-43
2023/03/06 09:18:06;;;;;;;1.38;1.10;;;5.40;99.90;;;;;;4998152;28;20033;-43
2023/03/06 09:20:31;;;;;;;2.95;1.08;;;5.40;99.90;;;;;;4998947;28;20025;-42
2023/03/06 09:22:57;;;;;;;1.38;1.00;;;5.40;99.90;;;;;;4997818;28;20018;-43
2023/03/06 09:25:23;;;;;;;2.85;1.40;;;5.40;99.90;;;;;;4998594;28;20142;-42
2023/03/06 09:27:49;;;;;;;1.20;1.10;;;5.40;99.90;;;;;;4999944;28;20835;-42
2023/03/06 09:30:16;;;;;;;1.65;1.10;;;5.40;99.90;;;;;;4979968;28;20033;-42
2023/03/06 09:32:42;;;;;;;1.08;0.90;;;5.40;99.90;;;;;;4997902;28;20144;-43
2023/03/06 09:35:09;;;;;;;0.88;0.88;;;5.40;99.90;;;;;;4997738;28;20517;-42
2023/03/06 09:37:35;;;;;;;1.70;1.17;;;5.40;99.90;;;;;;4998654;28;20038;-42
2023/03/06 09:40:00;;;;;;;1.25;0.75;;;5.40;99.90;;;;;;4998402;28;20030;-42
2023/03/06 09:42:32;;;;;;;0.80;0.80;;;5.50;99.90;;;;;;4998514;28;20056;-43
2023/03/06 09:45:00;;;;;;;1.15;0.80;;;5.50;99.90;;;;;;4993026;28;20030;-42
2023/03/06 09:48:03;;;;;;;1.80;0.60;;;5.60;99.90;;;;;;4998177;28;20042;-42
2023/03/06 09:50:50;;;;;;;0.80;0.80;;;5.60;99.90;;;;;;4997250;28;20032;-43
2023/03/06 09:53:40;;;;;;;2.97;0.90;;;5.80;99.90;;;;;;4996475;28;20080;-43
2023/03/06 09:56:18;;;;;;;0.93;0.70;;;5.80;99.90;;;;;;4997423;28;20054;-42
2023/03/06 09:58:48;;;;;;;1.05;0.73;;;5.80;99.90;;;;;;4997903;28;20033;-43
2023/03/06 10:01:27;;;;;;;0.80;0.60;;;5.90;99.90;;;;;;4996717;28;20038;-44
2023/03/06 10:04:09;;;;;;;1.75;0.50;;;6.00;99.90;;;;;;4993404;28;20057;-43
2023/03/06 10:06:47;;;;;;;1.20;0.70;;;6.10;99.90;;;;;;4996395;28;20469;-42
2023/03/06 10:09:43;;;;;;;1.52;0.70;;;6.20;99.90;;;;;;4996692;28;20034;-43
2023/03/06 10:12:19;;;;;;;0.60;0.60;;;6.20;99.90;;;;;;4981570;28;20041;-41
2023/03/06 10:14:52;;;;;;;0.43;0.40;;;6.20;99.90;;;;;;4997829;28;20030;-43
2023/03/06 10:17:21;;;;;;;1.30;0.65;;;6.30;99.90;;;;;;4998052;28;20068;-43
2023/03/06 10:19:49;;;;;;;0.65;0.55;;;6.30;99.90;;;;;;4998486;28;20123;-43
2023/03/06 10:22:23;;;;;;;2.38;0.52;;;6.40;99.90;;;;;;4997745;28;20049;-43
2023/03/06 10:25:16;;;;;;;0.47;0.47;;;6.40;99.90;;;;;;4998108;28;20153;-43
2023/03/06 10:27:50;;;;;;;0.45;0.45;;;6.40;99.90;;;;;;4997165;28;20038;-42
2023/03/06 10:30:44;;;;;;;0.70;0.63;;;6.30;99.90;;;;;;4997208;28;20136;-42
2023/03/06 10:33:25;;;;;;;2.08;0.70;;;6.30;99.90;;;;;;4997259;28;20058;-42
2023/03/06 10:36:12;;;;;;;0.70;0.70;;;6.30;99.90;;;;;;4997880;28;20500;-42
2023/03/06 10:38:37;;;;;;;0.60;0.60;;;6.30;99.90;;;;;;4997629;28;20022;-43
2023/03/06 10:41:09;;;;;;;1.67;0.70;;;6.30;99.90;;;;;;4995616;28;20084;-42
2023/03/06 10:43:40;;;;;;;1.35;0.80;;;6.30;99.90;;;;;;4997172;28;20441;-43
2023/03/06 10:46:07;;;;;;;0.75;0.50;;;6.30;99.90;;;;;;4997988;28;20123;-42
2023/03/06 10:48:35;;;;;;;1.10;0.40;;;6.40;99.90;;;;;;4996187;28;20034;-42
2023/03/06 10:51:20;;;;;;;1.25;0.45;;;6.50;99.90;;;;;;4996806;28;20026;-42
2023/03/06 10:53:51;;;;;;;0.35;0.35;;;6.60;99.90;;;;;;4997601;28;20497;-43
2023/03/06 10:56:36;;;;;;;0.52;0.40;;;6.70;99.90;;;;;;4996829;28;20058;-42
2023/03/06 10:59:18;;;;;;;0.40;0.40;;;6.80;99.90;;;;;;4996751;28;20038;-43
2023/03/06 11:01:49;;;;;;;0.87;0.53;;;6.80;99.90;;;;;;4997270;28;20375;-42
2023/03/06 11:04:32;;;;;;;0.43;0.43;;;6.80;99.90;;;;;;4996188;28;21297;-43
2023/03/06 11:07:16;;;;;;;0.30;0.30;;;6.90;99.90;;;;;;4994478;28;20037;-44
2023/03/06 11:09:58;;;;;;;0.30;0.30;;;7.00;99.90;;;;;;4996331;28;20757;-42
2023/03/06 11:12:33;;;;;;;2.08;0.73;;;7.10;99.90;;;;;;4994086;28;20030;-43
2023/03/06 11:15:16;;;;;;;0.93;0.40;;;7.20;99.90;;;;;;4996122;28;20084;-44
2023/03/06 11:18:03;;;;;;;0.40;0.40;;;7.20;99.90;;;;;;4996639;28;20091;-42
2023/03/06 11:20:43;;;;;;;0.40;0.35;;;7.30;99.90;;;;;;4996645;28;20474;-43
2023/03/06 11:23:20;;;;;;;0.47;0.47;;;7.30;99.90;;;;;;4996232;28;20030;-43
2023/03/06 11:26:15;;;;;;;0.40;0.40;;;7.30;99.90;;;;;;4998017;28;20018;-43
2023/03/06 11:29:11;;;;;;;0.30;0.30;;;7.30;99.90;;;;;;4993542;28;20069;-46
2023/03/06 11:31:46;;;;;;;0.90;0.40;;;7.40;99.90;;;;;;4997085;28;20033;-43
2023/03/06 11:34:30;;;;;;;0.40;0.40;;;7.40;99.90;;;;;;4997089;28;20294;-42
2023/03/06 11:37:32;;;;;;;1.33;0.50;;;7.40;99.90;;;;;;4994378;28;20155;-43
2023/03/06 11:40:01;;;;;;;0.30;0.30;;;7.50;99.90;;;;;;4982531;28;20034;-43
2023/03/06 11:42:31;;;;;;;0.50;0.50;;;7.40;99.90;;;;;;4996782;28;20038;-43
2023/03/06 11:45:30;;;;;;;0.70;0.35;;;7.50;99.90;;;;;;4995998;28;20618;-43
2023/03/06 11:48:14;;;;;;;0.57;0.40;;;7.60;99.90;;;;;;4981949;28;20038;-43
2023/03/06 11:50:46;;;;;;;0.80;0.47;;;7.60;99.90;;;;;;4997139;28;20044;-44
2023/03/06 11:53:21;;;;;;;1.27;0.40;;;7.50;99.90;;;;;;4995812;28;20048;-43
2023/03/06 11:55:58;;;;;;;0.88;0.50;;;7.60;99.90;;;;;;4997125;28;20788;-42
2023/03/06 11:58:42;;;;;;;0.40;0.40;;;7.70;99.90;;;;;;4993837;28;20038;-43
2023/03/06 12:01:27;;;;;;;0.50;0.40;;;7.80;99.90;;;;;;4996728;28;20030;-42
2023/03/06 12:04:15;;;;;;;1.77;0.40;;;7.80;99.90;;;;;;4996076;28;20389;-42
2023/03/06 12:06:59;;;;;;;0.52;0.40;;;7.90;99.90;;;;;;4995814;28;20041;-43
2023/03/06 12:09:44;;;;;;;1.15;0.40;;;7.90;99.90;;;;;;4994416;28;20084;-43
2023/03/06 12:12:18;;;;;;;0.55;0.47;;;7.90;99.90;;;;;;4996595;28;20138;-43
2023/03/06 12:14:58;;;;;;;0.50;0.50;;;8.00;99.90;;;;;;4997431;28;20077;-43
2023/03/06 12:17:56;;;;;;;0.60;0.60;;;8.10;99.90;;;;;;4994844;28;20057;-42
2023/03/06 12:20:39;;;;;;;0.50;0.50;;;8.30;99.90;;;;;;4991047;28;20065;-42
2023/03/06 12:23:27;;;;;;;0.60;0.40;;;8.50;99.90;;;;;;4994423;28;20034;-43
2023/03/06 12:26:09;;;;;;;0.50;0.50;;;8.60;99.90;;;;;;4996324;28;20048;-42
2023/03/06 12:28:58;;;;;;;0.57;0.57;;;8.70;99.80;;;;;;4994983;28;20026;-43
2023/03/06 12:31:42;;;;;;;1.17;0.68;;;8.70;99.90;;;;;;4996022;28;20042;-44
2023/03/06 12:34:27;;;;;;;2.15;0.60;;;8.80;99.90;;;;;;4995240;28;20037;-44
2023/03/06 12:37:04;;;;;;;0.75;0.65;;;8.80;99.80;;;;;;4993602;28;20030;-43
2023/03/06 12:39:59;;;;;;;0.65;0.60;;;8.90;99.90;;;;;;4995831;28;20116;-43
2023/03/06 12:42:32;;;;;;;0.40;0.40;;;8.90;99.90;;;;;;4966593;28;20072;-43
2023/03/06 12:45:01;;;;;;;0.43;0.40;;;8.90;99.90;;;;;;4996531;28;20029;-43
2023/03/06 12:47:29;;;;;;;0.68;0.50;;;8.90;99.90;;;;;;4995228;28;20057;-43
2023/03/06 12:50:02;;;;;;;2.60;0.50;;;9.00;99.90;;;;;;4996342;28;20026;-42
2023/03/06 12:52:32;;;;;;;1.27;0.60;;;9.00;99.90;;;;;;4995913;28;20037;-43
2023/03/06 12:55:00;;;;;;;0.50;0.50;;;9.00;99.90;;;;;;4995105;28;20148;-43
2023/03/06 12:57:25;;;;;;;0.73;0.60;;;9.10;99.90;;;;;;4995505;28;20599;-42
2023/03/06 12:59:52;;;;;;;0.82;0.63;;;9.10;99.90;;;;;;4994748;28;20049;-43
2023/03/06 13:02:52;;;;;;;1.00;1.00;;;9.20;99.90;;;;;;4988123;28;20394;-44
2023/03/06 13:05:35;;;;;;;1.02;0.90;;;9.30;99.90;;;;;;4990750;28;20519;-43
2023/03/06 13:08:37;;;;;;;2.60;1.10;;;9.30;99.90;;;;;;4996621;28;20068;-43